Time;durP1;ratioP1;P1;durP2;ratioP2;P2;SDS_P1;SDS_P2;PMS_P1;PMS_P2;Temp;Humidity;BMP_temperature;BMP_pressure;BME280_temperature;BME280_humidity;BME280_pressure;Samples;Min_cycle;Max_cycle;Signal;HPM_P1;HPM_P2
2021/12/06 00:00:24;;;;;;;35.22;23.33;;;;;;;;;;5010708;28;45953;-87
2021/12/06 00:02:52;;;;;;;40.85;23.98;;;;;;;;;;5010162;28;45028;-88
2021/12/06 00:05:19;;;;;;;37.17;22.25;;;;;;;;;;5011360;28;45829;-87
2021/12/06 00:07:46;;;;;;;42.60;23.50;;;;;;;;;;5011179;28;44912;-87
2021/12/06 00:10:13;;;;;;;44.20;23.90;;;;;;;;;;5010809;28;44900;-87
2021/12/06 00:12:42;;;;;;;36.70;22.92;;;;;;;;;;5010700;28;43938;-87
2021/12/06 00:15:10;;;;;;;36.22;22.55;;;;;;;;;;5010783;28;43943;-87
2021/12/06 00:17:37;;;;;;;40.90;22.45;;;;;;;;;;5010083;28;45872;-87
2021/12/06 00:20:05;;;;;;;36.70;23.05;;;;;;;;;;5011170;28;46030;-86
2021/12/06 00:22:32;;;;;;;42.60;24.52;;;;;;;;;;5010795;28;41633;-86
2021/12/06 00:24:59;;;;;;;39.30;23.42;;;;;;;;;;5009772;28;43682;-87
2021/12/06 00:27:27;;;;;;;36.75;22.48;;;;;;;;;;5010482;28;46003;-87
2021/12/06 00:29:54;;;;;;;44.57;25.27;;;;;;;;;;5010508;28;43174;-87
2021/12/06 00:32:21;;;;;;;45.80;25.52;;;;;;;;;;5010137;28;43679;-87
2021/12/06 00:34:47;;;;;;;39.60;22.98;;;;;;;;;;5010310;28;44953;-87
2021/12/06 00:37:19;;;;;;;48.05;26.15;;;;;;;;;;5010334;28;45954;-87
2021/12/06 00:39:48;;;;;;;42.92;23.80;;;;;;;;;;5009637;28;45903;-86
2021/12/06 00:42:15;;;;;;;52.75;27.10;;;;;;;;;;5010364;28;45171;-87
2021/12/06 00:44:41;;;;;;;47.42;25.83;;;;;;;;;;5010364;28;42403;-87
2021/12/06 00:47:08;;;;;;;41.47;23.45;;;;;;;;;;5009698;28;45336;-86
2021/12/06 00:49:35;;;;;;;48.38;25.52;;;;;;;;;;5010594;28;42733;-87
2021/12/06 00:52:02;;;;;;;49.28;26.23;;;;;;;;;;5009292;28;42902;-88
2021/12/06 00:54:34;;;;;;;62.22;29.95;;;;;;;;;;5010206;28;45031;-88
2021/12/06 00:57:02;;;;;;;55.67;26.80;;;;;;;;;;5010506;28;45766;-88
2021/12/06 00:59:28;;;;;;;49.58;27.02;;;;;;;;;;5009602;28;45375;-87
2021/12/06 01:01:56;;;;;;;59.80;29.83;;;;;;;;;;5009832;28;44835;-88
2021/12/06 01:04:23;;;;;;;59.60;28.70;;;;;;;;;;5010212;28;44768;-87
2021/12/06 01:06:49;;;;;;;72.72;31.70;;;;;;;;;;5009138;28;44139;-87
2021/12/06 01:09:16;;;;;;;75.28;34.45;;;;;;;;;;5009605;28;44052;-87
2021/12/06 01:11:43;;;;;;;55.67;30.05;;;;;;;;;;5010041;28;43892;-87
2021/12/06 01:14:09;;;;;;;67.78;31.98;;;;;;;;;;5009450;28;42683;-86
2021/12/06 01:16:36;;;;;;;60.35;30.83;;;;;;;;;;5009955;28;44649;-87
2021/12/06 01:19:03;;;;;;;58.83;30.77;;;;;;;;;;5009863;28;46029;-87
2021/12/06 01:21:45;;;;;;;77.28;32.78;;;;;;;;;;5009193;28;42910;-86
2021/12/06 01:24:13;;;;;;;62.25;30.27;;;;;;;;;;5010038;28;45442;-86
2021/12/06 01:27:04;;;;;;;61.33;30.30;;;;;;;;;;5009828;28;46486;-87
2021/12/06 01:39:56;;;;;;;63.72;28.42;;;;;;;;;;5009594;28;44920;-87
2021/12/06 01:42:23;;;;;;;61.15;28.95;;;;;;;;;;5008556;28;42877;-86
2021/12/06 01:44:52;;;;;;;65.82;29.33;;;;;;;;;;5009337;28;45703;-87
2021/12/06 01:47:18;;;;;;;;;;;;;;;;;;5009968;28;43930;-87
2021/12/06 01:49:48;;;;;;;67.00;28.85;;;;;;;;;;5008990;28;42914;-87
2021/12/06 01:52:17;;;;;;;60.80;27.27;;;;;;;;;;5009199;28;43943;-87
2021/12/06 01:54:44;;;;;;;60.67;28.23;;;;;;;;;;5009493;28;45963;-87
2021/12/06 01:57:10;;;;;;;56.17;28.02;;;;;;;;;;5008752;28;43901;-87
2021/12/06 01:59:38;;;;;;;62.25;28.85;;;;;;;;;;5009552;28;43853;-87
2021/12/06 02:02:06;;;;;;;71.10;30.65;;;;;;;;;;5009138;28;44849;-86
2021/12/06 02:04:33;;;;;;;62.70;28.65;;;;;;;;;;5008717;28;45773;-87
2021/12/06 02:07:01;;;;;;;72.15;31.20;;;;;;;;;;5009209;28;46365;-87
2021/12/06 02:09:28;;;;;;;72.47;30.88;;;;;;;;;;5008468;28;44847;-87
2021/12/06 02:11:57;;;;;;;74.90;31.75;;;;;;;;;;5009520;28;45747;-87
2021/12/06 02:17:13;;;;;;;71.82;30.80;;;;;;;;;;5008307;28;44580;-86
2021/12/06 02:19:49;;;;;;;73.82;31.40;;;;;;;;;;5009077;28;44703;-87
2021/12/06 02:22:22;;;;;;;73.63;30.20;;;;;;;;;;5009268;28;45897;-86
2021/12/06 02:24:51;;;;;;;71.78;30.23;;;;;;;;;;5008010;28;45670;-87
2021/12/06 02:27:19;;;;;;;69.47;30.77;;;;;;;;;;5008999;28;45028;-87
2021/12/06 02:29:47;;;;;;;60.10;28.70;;;;;;;;;;5009019;28;44873;-86
2021/12/06 02:32:14;;;;;;;84.30;33.00;;;;;;;;;;5008017;28;44613;-87
2021/12/06 02:34:44;;;;;;;84.07;31.15;;;;;;;;;;5008943;28;44058;-88
2021/12/06 02:37:12;;;;;;;69.95;30.80;;;;;;;;;;5008970;28;42961;-87
2021/12/06 02:39:39;;;;;;;84.27;33.17;;;;;;;;;;5008275;28;46494;-86
2021/12/06 02:42:07;;;;;;;82.15;32.67;;;;;;;;;;5008558;28;46048;-86
2021/12/06 02:44:34;;;;;;;61.88;30.48;;;;;;;;;;5008379;28;42988;-87
2021/12/06 02:47:01;;;;;;;63.22;29.98;;;;;;;;;;5008629;28;44960;-87
2021/12/06 02:49:28;;;;;;;68.10;29.55;;;;;;;;;;5008808;28;42810;-87
2021/12/06 02:51:56;;;;;;;67.35;29.48;;;;;;;;;;5009317;28;20058;-87
2021/12/06 02:54:24;;;;;;;67.95;29.77;;;;;;;;;;5008584;28;45918;-87
2021/12/06 02:59:37;;;;;;;85.85;31.92;;;;;;;;;;5009662;28;43221;-87
2021/12/06 03:02:06;;;;;;;67.88;30.52;;;;;;;;;;5011723;28;43964;-86
2021/12/06 03:04:33;;;;;;;69.28;31.25;;;;;;;;;;5012034;28;43953;-86
2021/12/06 03:06:59;;;;;;;72.32;31.67;;;;;;;;;;5011363;28;43762;-87
2021/12/06 03:09:28;;;;;;;84.25;33.17;;;;;;;;;;5012066;28;43806;-86
2021/12/06 03:12:03;;;;;;;77.70;30.48;;;;;;;;;;5011646;28;44514;-87
2021/12/06 03:14:31;;;;;;;75.30;31.17;;;;;;;;;;5010777;28;46025;-86
2021/12/06 03:16:59;;;;;;;73.88;31.40;;;;;;;;;;5011517;28;44901;-87
2021/12/06 03:19:26;;;;;;;65.82;29.95;;;;;;;;;;5011705;28;43744;-87
2021/12/06 03:21:53;;;;;;;66.18;30.13;;;;;;;;;;5010750;28;44933;-87
2021/12/06 03:24:20;;;;;;;75.70;30.95;;;;;;;;;;5011354;28;44890;-86
2021/12/06 03:26:47;;;;;;;69.95;30.55;;;;;;;;;;5011266;28;44328;-86
2021/12/06 03:29:14;;;;;;;70.30;29.08;;;;;;;;;;4999759;28;42886;-87
2021/12/06 03:31:40;;;;;;;69.65;30.02;;;;;;;;;;4991509;28;44817;-87
2021/12/06 03:34:08;;;;;;;73.53;30.13;;;;;;;;;;4991031;28;44922;-87
2021/12/06 03:36:35;;;;;;;63.40;29.90;;;;;;;;;;4991831;28;43962;-87
2021/12/06 03:39:04;;;;;;;60.40;28.03;;;;;;;;;;4992111;28;45999;-87
2021/12/06 03:41:31;;;;;;;68.70;29.38;;;;;;;;;;4991101;28;43904;-87
2021/12/06 03:43:58;;;;;;;67.53;30.13;;;;;;;;;;5011427;28;44981;-87
2021/12/06 03:46:26;;;;;;;64.00;29.52;;;;;;;;;;5011329;28;44683;-86
2021/12/06 03:48:52;;;;;;;78.87;30.53;;;;;;;;;;5010873;28;43992;-87
2021/12/06 03:51:19;;;;;;;67.70;28.92;;;;;;;;;;5010632;28;43654;-87
2021/12/06 03:53:46;;;;;;;60.25;28.65;;;;;;;;;;5011210;28;44517;-87
2021/12/06 03:56:13;;;;;;;77.00;31.02;;;;;;;;;;5010556;28;44921;-87
2021/12/06 03:58:40;;;;;;;63.97;29.75;;;;;;;;;;5011527;28;46032;-87
2021/12/06 04:01:07;;;;;;;61.17;28.70;;;;;;;;;;5011185;28;45995;-86
2021/12/06 04:03:35;;;;;;;69.18;29.27;;;;;;;;;;5010339;28;44880;-86
2021/12/06 04:06:03;;;;;;;75.47;30.92;;;;;;;;;;5010351;28;45610;-87
2021/12/06 04:08:30;;;;;;;92.38;33.58;;;;;;;;;;5011067;28;44914;-86
2021/12/06 04:10:56;;;;;;;76.28;32.40;;;;;;;;;;5009798;28;42931;-87
2021/12/06 04:13:23;;;;;;;81.22;32.67;;;;;;;;;;5010768;28;46008;-86
2021/12/06 04:15:50;;;;;;;85.18;31.23;;;;;;;;;;5011070;28;42891;-87
2021/12/06 04:18:17;;;;;;;77.32;31.02;;;;;;;;;;5010113;28;45677;-86
2021/12/06 04:20:44;;;;;;;76.32;32.08;;;;;;;;;;5010390;28;44991;-87
2021/12/06 04:23:11;;;;;;;68.13;30.08;;;;;;;;;;5010232;28;44890;-87
2021/12/06 04:25:38;;;;;;;72.30;30.55;;;;;;;;;;5010925;28;43324;-86
2021/12/06 04:28:07;;;;;;;74.65;31.50;;;;;;;;;;5008361;28;44093;-86
2021/12/06 04:30:33;;;;;;;;;;;;;;;;;;4991673;28;44993;-87
2021/12/06 04:33:00;;;;;;;72.03;31.27;;;;;;;;;;4991463;28;43501;-87
2021/12/06 04:35:27;;;;;;;79.13;31.95;;;;;;;;;;4990381;28;45082;-88
2021/12/06 04:37:54;;;;;;;102.72;34.80;;;;;;;;;;4989633;28;45772;-87
2021/12/06 04:40:20;;;;;;;75.40;32.33;;;;;;;;;;4990824;28;44452;-86
2021/12/06 04:42:47;;;;;;;89.68;34.08;;;;;;;;;;4999413;28;42907;-86
2021/12/06 04:45:14;;;;;;;88.88;33.88;;;;;;;;;;5008238;28;43832;-87
2021/12/06 04:47:42;;;;;;;78.57;32.78;;;;;;;;;;5009629;28;46079;-87
2021/12/06 04:50:09;;;;;;;74.13;30.60;;;;;;;;;;5010434;28;44951;-87
2021/12/06 04:52:37;;;;;;;78.72;31.55;;;;;;;;;;5008330;28;44693;-87
2021/12/06 04:55:07;;;;;;;90.82;32.65;;;;;;;;;;5008679;28;44011;-87
2021/12/06 04:57:35;;;;;;;81.13;32.08;;;;;;;;;;5008600;28;43406;-87
2021/12/06 05:00:02;;;;;;;;;;;;;;;;;;5008601;28;43644;-87
2021/12/06 05:02:35;;;;;;;74.82;30.70;;;;;;;;;;5009258;28;43708;-87
2021/12/06 05:05:07;;;;;;;102.50;35.00;;;;;;;;;;5009948;28;43732;-85
2021/12/06 05:07:36;;;;;;;96.57;33.33;;;;;;;;;;5009752;28;44677;-86
2021/12/06 05:10:04;;;;;;;87.90;32.50;;;;;;;;;;5010116;28;43537;-86
2021/12/06 05:12:32;;;;;;;83.25;33.17;;;;;;;;;;5009396;28;45772;-86
2021/12/06 05:14:59;;;;;;;77.57;33.40;;;;;;;;;;5009764;28;43897;-86
2021/12/06 05:17:26;;;;;;;92.28;32.45;;;;;;;;;;5010485;28;37702;-85
2021/12/06 05:19:53;;;;;;;115.20;36.15;;;;;;;;;;5008934;28;46078;-85
2021/12/06 05:22:20;;;;;;;104.30;35.63;;;;;;;;;;5009783;28;43609;-85
2021/12/06 05:24:46;;;;;;;118.90;36.20;;;;;;;;;;5010585;28;44709;-85
2021/12/06 05:27:13;;;;;;;119.97;35.88;;;;;;;;;;5008867;28;45995;-86
2021/12/06 05:29:45;;;;;;;91.20;32.95;;;;;;;;;;4993650;28;45207;-85
2021/12/06 05:32:11;;;;;;;84.80;31.92;;;;;;;;;;4990065;28;43735;-87
2021/12/06 05:34:40;;;;;;;81.30;32.05;;;;;;;;;;4987738;28;44982;-87
2021/12/06 05:37:13;;;;;;;90.30;33.53;;;;;;;;;;4988461;28;42976;-86
2021/12/06 05:39:40;;;;;;;86.00;31.83;;;;;;;;;;4988607;28;44956;-87
2021/12/06 05:42:10;;;;;;;97.00;35.95;;;;;;;;;;4992359;28;44943;-83
2021/12/06 05:44:38;;;;;;;101.50;36.85;;;;;;;;;;5008221;28;44383;-83
2021/12/06 05:47:05;;;;;;;73.47;31.38;;;;;;;;;;5009005;28;44116;-83
2021/12/06 05:49:32;;;;;;;90.55;33.83;;;;;;;;;;5008096;28;45102;-84
2021/12/06 05:51:59;;;;;;;99.95;35.47;;;;;;;;;;5008108;28;44440;-83
2021/12/06 05:54:28;;;;;;;77.80;31.92;;;;;;;;;;5007524;28;44982;-83
2021/12/06 05:56:55;;;;;;;75.07;32.97;;;;;;;;;;5000901;28;43967;-83
2021/12/06 05:59:21;;;;;;;83.93;34.60;;;;;;;;;;4996882;28;44646;-84
2021/12/06 06:01:50;;;;;;;80.88;34.75;;;;;;;;;;4996034;28;45021;-83
2021/12/06 06:04:17;;;;;;;77.80;34.95;;;;;;;;;;5000423;28;43710;-84
2021/12/06 06:06:44;;;;;;;85.75;34.08;;;;;;;;;;5008744;28;45026;-84
2021/12/06 06:09:10;;;;;;;85.18;34.10;;;;;;;;;;5008258;28;44179;-85
2021/12/06 06:11:37;;;;;;;87.13;34.67;;;;;;;;;;5008778;28;44806;-85
2021/12/06 06:14:05;;;;;;;80.60;33.75;;;;;;;;;;5009090;28;45092;-85
2021/12/06 06:16:36;;;;;;;75.55;33.55;;;;;;;;;;5005673;28;20061;-83
2021/12/06 06:19:03;;;;;;;69.65;31.85;;;;;;;;;;4992549;28;44765;-84
2021/12/06 06:21:30;;;;;;;81.22;32.50;;;;;;;;;;4989050;28;44882;-84
2021/12/06 06:23:56;;;;;;;79.30;33.92;;;;;;;;;;5001368;28;43708;-84
2021/12/06 06:26:23;;;;;;;78.93;34.35;;;;;;;;;;5005882;28;45863;-84
2021/12/06 06:28:49;;;;;;;73.90;33.53;;;;;;;;;;5006194;28;44908;-84
2021/12/06 06:31:16;;;;;;;80.25;35.50;;;;;;;;;;5005493;28;45740;-84
2021/12/06 06:33:43;;;;;;;69.95;31.80;;;;;;;;;;5007653;28;45253;-84
2021/12/06 06:36:11;;;;;;;65.25;31.83;;;;;;;;;;5012034;28;44959;-86
2021/12/06 06:38:38;;;;;;;84.55;35.50;;;;;;;;;;5011645;28;44513;-85
2021/12/06 06:41:06;;;;;;;81.65;34.28;;;;;;;;;;5012202;28;42884;-86
2021/12/06 06:43:32;;;;;;;77.70;34.28;;;;;;;;;;4996175;28;42996;-84
2021/12/06 06:46:00;;;;;;;80.87;32.60;;;;;;;;;;4992295;28;43725;-85
2021/12/06 06:48:26;;;;;;;77.85;33.47;;;;;;;;;;4992105;28;43581;-84
2021/12/06 06:50:53;;;;;;;79.10;33.97;;;;;;;;;;4991892;28;44667;-85
2021/12/06 06:53:20;;;;;;;84.70;34.88;;;;;;;;;;4992559;28;46047;-85
2021/12/06 06:55:47;;;;;;;84.00;35.55;;;;;;;;;;4991928;28;43273;-84
2021/12/06 06:58:14;;;;;;;77.80;33.83;;;;;;;;;;4991694;28;45756;-82
2021/12/06 07:00:41;;;;;;;84.07;35.63;;;;;;;;;;4992391;28;45996;-84
2021/12/06 07:03:09;;;;;;;80.53;34.50;;;;;;;;;;4992425;28;44952;-85
2021/12/06 07:05:37;;;;;;;86.28;35.10;;;;;;;;;;4991869;28;44790;-82
2021/12/06 07:08:04;;;;;;;69.65;33.70;;;;;;;;;;4992090;28;44993;-84
2021/12/06 07:10:31;;;;;;;80.85;34.08;;;;;;;;;;4997825;28;43522;-83
2021/12/06 07:13:00;;;;;;;76.03;33.80;;;;;;;;;;4996144;28;43958;-83
2021/12/06 07:15:28;;;;;;;73.55;33.25;;;;;;;;;;4999721;28;45187;-83
2021/12/06 07:17:55;;;;;;;;;;;;;;;;;;4995087;28;44256;-83
2021/12/06 07:20:23;;;;;;;84.32;33.88;;;;;;;;;;4992052;28;47312;-82
2021/12/06 07:22:52;;;;;;;82.53;32.65;;;;;;;;;;4992291;28;43943;-81
2021/12/06 07:25:25;;;;;;;77.93;34.05;;;;;;;;;;4992804;28;43853;-81
2021/12/06 07:27:52;;;;;;;72.57;33.38;;;;;;;;;;4991691;28;42908;-83
2021/12/06 07:30:19;;;;;;;72.32;34.00;;;;;;;;;;5011574;28;45745;-83
2021/12/06 07:32:46;;;;;;;69.20;31.67;;;;;;;;;;5011470;28;43996;-81
2021/12/06 07:35:14;;;;;;;73.68;33.38;;;;;;;;;;5010543;28;45225;-82
2021/12/06 07:37:41;;;;;;;68.80;32.42;;;;;;;;;;5011638;28;45719;-83
2021/12/06 07:40:09;;;;;;;91.32;36.17;;;;;;;;;;5010646;28;46013;-88
2021/12/06 07:42:35;;;;;;;79.32;34.00;;;;;;;;;;4951355;28;25175;-88
2021/12/06 07:45:03;;;;;;;66.78;31.20;;;;;;;;;;4990251;28;42994;-86
2021/12/06 07:47:30;;;;;;;76.03;33.60;;;;;;;;;;4990930;28;46094;-86
2021/12/06 07:49:57;;;;;;;88.13;35.25;;;;;;;;;;4991716;28;45827;-86
2021/12/06 07:52:26;;;;;;;72.65;33.28;;;;;;;;;;5003676;28;46004;-88
2021/12/06 07:54:57;;;;;;;74.15;32.30;;;;;;;;;;5010106;28;44736;-86
2021/12/06 07:57:24;;;;;;;74.57;33.63;;;;;;;;;;5006894;28;46090;-84
2021/12/06 07:59:51;;;;;;;69.55;32.30;;;;;;;;;;5009218;28;43397;-83
2021/12/06 08:02:18;;;;;;;72.25;31.92;;;;;;;;;;5009266;28;21229;-82
2021/12/06 08:04:48;;;;;;;69.63;32.13;;;;;;;;;;5010088;28;45726;-81
2021/12/06 08:07:15;;;;;;;65.78;32.47;;;;;;;;;;5010380;28;46550;-86
2021/12/06 08:09:41;;;;;;;83.25;36.38;;;;;;;;;;5009933;28;45323;-88
2021/12/06 08:12:08;;;;;;;77.95;32.47;;;;;;;;;;5008999;28;45902;-86
2021/12/06 08:14:35;;;;;;;70.75;32.67;;;;;;;;;;5009706;28;45019;-89
2021/12/06 08:17:01;;;;;;;76.78;33.58;;;;;;;;;;5009577;28;44505;-81
2021/12/06 08:19:28;;;;;;;75.20;32.78;;;;;;;;;;5009439;28;45937;-82
2021/12/06 08:21:55;;;;;;;73.05;32.28;;;;;;;;;;5009852;28;42909;-88
2021/12/06 08:24:21;;;;;;;65.95;31.25;;;;;;;;;;5008702;28;45870;-83
2021/12/06 08:26:48;;;;;;;71.97;32.95;;;;;;;;;;5010147;28;46103;-86
2021/12/06 08:29:16;;;;;;;62.28;30.80;;;;;;;;;;5009851;28;42912;-87
2021/12/06 08:31:44;;;;;;;73.32;31.85;;;;;;;;;;5010332;28;45775;-79
2021/12/06 08:34:12;;;;;;;72.07;32.25;;;;;;;;;;5007370;28;20512;-86
2021/12/06 08:36:39;;;;;;;75.95;32.22;;;;;;;;;;5008158;28;43878;-81
2021/12/06 08:39:06;;;;;;;73.00;32.00;;;;;;;;;;5009781;28;43981;-79
2021/12/06 08:41:34;;;;;;;72.57;31.38;;;;;;;;;;5010303;28;20046;-80
2021/12/06 08:44:02;;;;;;;65.13;30.65;;;;;;;;;;5008965;28;45801;-79
2021/12/06 08:46:33;;;;;;;66.43;30.98;;;;;;;;;;5008455;28;45870;-79
2021/12/06 08:49:04;;;;;;;63.42;30.85;;;;;;;;;;5010164;28;43044;-81
2021/12/06 08:51:33;;;;;;;69.20;32.50;;;;;;;;;;5007878;28;46067;-80
2021/12/06 08:54:01;;;;;;;68.40;32.40;;;;;;;;;;5010374;28;44754;-79
2021/12/06 08:56:27;;;;;;;64.70;31.03;;;;;;;;;;5007739;28;43686;-80
2021/12/06 08:58:57;;;;;;;70.35;32.17;;;;;;;;;;5008622;28;43972;-80
2021/12/06 09:01:24;;;;;;;68.32;33.08;;;;;;;;;;5009162;28;44067;-81
2021/12/06 09:04:12;;;;;;;62.13;32.57;;;;;;;;;;5005444;28;44677;-80
2021/12/06 09:06:41;;;;;;;67.88;31.88;;;;;;;;;;4985862;28;46015;-90
2021/12/06 09:09:09;;;;;;;;;;;;;;;;;;4991319;28;44896;-83
2021/12/06 09:11:37;;;;;;;58.47;30.23;;;;;;;;;;4989228;28;44365;-80
2021/12/06 09:14:04;;;;;;;68.53;30.37;;;;;;;;;;4988650;28;44897;-81
2021/12/06 09:16:31;;;;;;;79.78;34.25;;;;;;;;;;4988665;28;45357;-83
2021/12/06 09:19:00;;;;;;;81.25;35.92;;;;;;;;;;4987669;28;45970;-87
2021/12/06 09:21:27;;;;;;;73.43;34.90;;;;;;;;;;4988247;28;43400;-85
2021/12/06 09:23:55;;;;;;;70.13;33.35;;;;;;;;;;4988446;28;43736;-90
2021/12/06 09:26:22;;;;;;;81.68;31.95;;;;;;;;;;4991206;28;46065;-90
2021/12/06 09:28:48;;;;;;;75.75;34.10;;;;;;;;;;4990931;28;44907;-85
2021/12/06 09:31:18;;;;;;;70.57;31.95;;;;;;;;;;4988467;28;44321;-89
2021/12/06 09:33:45;;;;;;;76.43;32.75;;;;;;;;;;4985159;28;43727;-89
2021/12/06 09:36:13;;;;;;;69.00;29.35;;;;;;;;;;4990464;28;44955;-91
2021/12/06 09:38:41;;;;;;;66.60;30.08;;;;;;;;;;4988629;28;45970;-92
2021/12/06 09:41:10;;;;;;;64.20;32.78;;;;;;;;;;4998924;28;43000;-92
2021/12/06 09:43:39;;;;;;;57.97;30.35;;;;;;;;;;4989702;28;44665;-91
2021/12/06 09:46:08;;;;;;;78.15;32.95;;;;;;;;;;4987976;28;44943;-90
2021/12/06 09:48:36;;;;;;;64.93;32.58;;;;;;;;;;4987061;28;42915;-91
2021/12/06 09:51:03;;;;;;;;;;;;;;;;;;5007731;28;45712;-84
2021/12/06 09:53:31;;;;;;;60.75;29.48;;;;;;;;;;5006565;28;46240;-89
2021/12/06 09:56:00;;;;;;;61.85;31.02;;;;;;;;;;5007579;28;45196;-91
2021/12/06 09:58:30;;;;;;;58.70;29.58;;;;;;;;;;5007921;28;43717;-90
2021/12/06 10:00:59;;;;;;;57.42;30.10;;;;;;;;;;5005293;28;44296;-90
2021/12/06 10:03:29;;;;;;;72.80;32.75;;;;;;;;;;5007044;28;46093;-91
2021/12/06 10:06:02;;;;;;;63.50;29.88;;;;;;;;;;5007697;28;43966;-86
2021/12/06 10:08:29;;;;;;;61.50;29.15;;;;;;;;;;5006579;28;44887;-83
2021/12/06 10:10:56;;;;;;;89.95;32.72;;;;;;;;;;5008006;28;45726;-93
2021/12/06 10:13:23;;;;;;;74.60;32.85;;;;;;;;;;5007050;28;45562;-86
2021/12/06 10:15:52;;;;;;;66.97;30.83;;;;;;;;;;5000350;28;45209;-87
2021/12/06 10:18:20;;;;;;;72.90;30.85;;;;;;;;;;5007507;28;44759;-87
2021/12/06 10:20:48;;;;;;;69.50;32.17;;;;;;;;;;5002051;28;44902;-89
2021/12/06 10:23:16;;;;;;;77.43;33.45;;;;;;;;;;4996112;28;20063;-89
2021/12/06 10:25:45;;;;;;;83.45;33.00;;;;;;;;;;4997124;28;44857;-86
2021/12/06 10:28:13;;;;;;;79.05;33.25;;;;;;;;;;4992963;28;43932;-83
2021/12/06 10:30:45;;;;;;;80.93;32.72;;;;;;;;;;4992960;28;44697;-85
2021/12/06 10:33:20;;;;;;;86.32;32.53;;;;;;;;;;4994918;28;43953;-84
2021/12/06 10:35:48;;;;;;;101.32;34.63;;;;;;;;;;5010077;28;42456;-87
2021/12/06 10:38:19;;;;;;;91.78;32.45;;;;;;;;;;5015267;28;20468;-86
2021/12/06 10:40:46;;;;;;;123.88;37.35;;;;;;;;;;5009336;28;43950;-84
2021/12/06 10:43:13;;;;;;;135.40;35.55;;;;;;;;;;4997274;28;42991;-84
2021/12/06 10:45:44;;;;;;;136.82;39.53;;;;;;;;;;4989073;28;44979;-86
2021/12/06 10:48:16;;;;;;;106.15;37.47;;;;;;;;;;4991671;28;44084;-84
2021/12/06 10:50:51;;;;;;;115.53;41.72;;;;;;;;;;4992095;28;44764;-85
2021/12/06 10:53:21;;;;;;;95.28;37.65;;;;;;;;;;4986613;28;45287;-84
2021/12/06 10:55:51;;;;;;;94.55;37.28;;;;;;;;;;4993923;28;44570;-85
2021/12/06 10:58:21;;;;;;;98.40;36.47;;;;;;;;;;4991545;28;46151;-84
2021/12/06 11:00:50;;;;;;;104.97;39.70;;;;;;;;;;4988588;28;45964;-84
2021/12/06 11:03:30;;;;;;;98.22;38.53;;;;;;;;;;4990238;28;44543;-84
2021/12/06 11:06:01;;;;;;;104.85;37.92;;;;;;;;;;4987758;28;45210;-83
2021/12/06 11:08:31;;;;;;;96.18;34.45;;;;;;;;;;4988771;28;44056;-85
2021/12/06 11:11:00;;;;;;;100.18;37.58;;;;;;;;;;5004503;28;44693;-88
2021/12/06 11:13:29;;;;;;;112.15;37.85;;;;;;;;;;5015482;28;44919;-84
2021/12/06 11:16:10;;;;;;;94.25;37.17;;;;;;;;;;4996115;28;45701;-87
2021/12/06 11:18:39;;;;;;;102.00;37.63;;;;;;;;;;5010659;28;43730;-83
2021/12/06 11:21:14;;;;;;;102.97;38.20;;;;;;;;;;5011560;28;43732;-82
2021/12/06 11:23:57;;;;;;;117.05;40.28;;;;;;;;;;5009903;28;45447;-83
2021/12/06 11:26:24;;;;;;;115.05;41.17;;;;;;;;;;5010596;28;20054;-82
2021/12/06 11:28:51;;;;;;;115.40;40.03;;;;;;;;;;5002194;28;44158;-84
2021/12/06 11:31:18;;;;;;;106.63;40.22;;;;;;;;;;4990448;28;43990;-83
2021/12/06 11:33:55;;;;;;;127.40;42.30;;;;;;;;;;4989372;28;46011;-84
2021/12/06 11:36:23;;;;;;;114.30;39.40;;;;;;;;;;4989202;28;44877;-83
2021/12/06 11:38:50;;;;;;;123.95;41.25;;;;;;;;;;4988477;28;43683;-83
2021/12/06 11:41:17;;;;;;;135.02;42.75;;;;;;;;;;4989058;28;43929;-82
2021/12/06 11:43:43;;;;;;;120.80;41.00;;;;;;;;;;4990253;28;45123;-84
2021/12/06 11:46:10;;;;;;;123.75;41.42;;;;;;;;;;4989481;28;44923;-82
2021/12/06 11:48:39;;;;;;;138.00;42.38;;;;;;;;;;4989885;28;45017;-84
2021/12/06 11:51:09;;;;;;;104.30;39.78;;;;;;;;;;4990150;28;45783;-83
2021/12/06 11:53:37;;;;;;;117.82;39.42;;;;;;;;;;4989636;28;44716;-84
2021/12/06 11:56:05;;;;;;;97.38;36.67;;;;;;;;;;4989898;28;43853;-85
2021/12/06 11:58:34;;;;;;;88.05;34.42;;;;;;;;;;4989905;28;45857;-83
2021/12/06 12:01:12;;;;;;;82.80;32.95;;;;;;;;;;4989103;28;44769;-85
2021/12/06 12:03:40;;;;;;;71.57;30.98;;;;;;;;;;4989997;28;42825;-90
2021/12/06 12:06:39;;;;;;;68.10;29.38;;;;;;;;;;4989354;28;42504;-82
2021/12/06 12:09:11;;;;;;;60.75;27.48;;;;;;;;;;4976639;28;43907;-84
2021/12/06 12:11:59;;;;;;;60.60;26.88;;;;;;;;;;5009281;28;44887;-84
2021/12/06 12:14:31;;;;;;;60.72;28.02;;;;;;;;;;5009158;28;45936;-83
2021/12/06 12:16:59;;;;;;;51.92;24.95;;;;;;;;;;4984036;28;42532;-84
2021/12/06 12:19:26;;;;;;;58.33;26.55;;;;;;;;;;4988700;28;44685;-82
2021/12/06 12:21:53;;;;;;;50.67;23.92;;;;;;;;;;4987750;28;46061;-83
2021/12/06 12:24:20;;;;;;;56.03;25.42;;;;;;;;;;4989505;28;44931;-82
2021/12/06 12:27:09;;;;;;;46.03;23.13;;;;;;;;;;4988204;28;43616;-83
2021/12/06 12:29:36;;;;;;;45.97;22.40;;;;;;;;;;4988247;28;46030;-83
2021/12/06 12:32:04;;;;;;;46.03;23.08;;;;;;;;;;4988376;28;43083;-83
2021/12/06 12:34:34;;;;;;;44.55;22.58;;;;;;;;;;4989995;28;44687;-84
2021/12/06 12:37:02;;;;;;;46.85;22.58;;;;;;;;;;4992156;28;44940;-83
2021/12/06 12:39:28;;;;;;;45.90;23.05;;;;;;;;;;5007350;28;44248;-83
2021/12/06 12:41:57;;;;;;;57.47;25.48;;;;;;;;;;5004751;28;46027;-84
2021/12/06 12:44:38;;;;;;;54.95;26.00;;;;;;;;;;4988764;28;43877;-84
2021/12/06 12:47:11;;;;;;;52.78;26.13;;;;;;;;;;4988576;28;45968;-83
2021/12/06 12:49:42;;;;;;;45.53;23.90;;;;;;;;;;4987898;28;43421;-84
2021/12/06 12:52:09;;;;;;;54.90;23.90;;;;;;;;;;4988382;28;44958;-84
2021/12/06 12:54:35;;;;;;;38.38;19.90;;;;;;;;;;4988774;28;45777;-83
2021/12/06 12:57:04;;;;;;;37.17;21.02;;;;;;;;;;4988158;28;43937;-83
2021/12/06 12:59:30;;;;;;;;;;;;;;;;;;4989366;28;45780;-84
2021/12/06 13:02:17;;;;;;;41.85;21.63;;;;;;;;;;4988438;28;44085;-83
2021/12/06 13:04:56;;;;;;;37.03;19.97;;;;;;;;;;4988221;28;44884;-84
2021/12/06 13:07:24;;;;;;;33.70;19.08;;;;;;;;;;4988932;28;43742;-83
2021/12/06 13:09:51;;;;;;;38.72;20.65;;;;;;;;;;4988377;28;46242;-83
2021/12/06 13:12:18;;;;;;;36.10;19.10;;;;;;;;;;4987684;28;43896;-83
2021/12/06 13:14:53;;;;;;;57.33;20.85;;;;;;;;;;4988464;28;43912;-82
2021/12/06 13:17:27;;;;;;;38.97;19.02;;;;;;;;;;4986083;28;45902;-83
2021/12/06 13:20:09;;;;;;;38.50;20.02;;;;;;;;;;4988438;28;44224;-82
2021/12/06 13:22:46;;;;;;;39.42;20.10;;;;;;;;;;4988831;28;43925;-83
2021/12/06 13:25:14;;;;;;;44.25;21.02;;;;;;;;;;4987906;28;44930;-83
2021/12/06 13:27:41;;;;;;;;;;;;;;;;;;4989010;28;44752;-83
2021/12/06 13:30:21;;;;;;;49.70;20.42;;;;;;;;;;4988503;28;45899;-83
2021/12/06 13:32:49;;;;;;;50.63;22.08;;;;;;;;;;4988101;28;44866;-83
2021/12/06 13:35:16;;;;;;;;;;;;;;;;;;4990015;28;44768;-83
2021/12/06 13:37:43;;;;;;;50.17;21.15;;;;;;;;;;4987874;28;44075;-82
2021/12/06 13:40:17;;;;;;;74.82;23.80;;;;;;;;;;4987953;28;43914;-83
2021/12/06 13:42:48;;;;;;;45.40;21.30;;;;;;;;;;4988033;28;43718;-83
2021/12/06 13:45:18;;;;;;;54.20;20.75;;;;;;;;;;4987849;28;43171;-83
2021/12/06 13:47:47;;;;;;;48.05;22.00;;;;;;;;;;4987333;28;45831;-80
2021/12/06 13:50:15;;;;;;;50.85;23.00;;;;;;;;;;4988498;28;45361;-83
2021/12/06 13:52:47;;;;;;;56.92;23.05;;;;;;;;;;4987592;28;42967;-83
2021/12/06 13:55:24;;;;;;;56.38;24.10;;;;;;;;;;4988063;28;43887;-83
2021/12/06 13:57:54;;;;;;;59.08;24.02;;;;;;;;;;4987629;28;46123;-83
2021/12/06 14:00:24;;;;;;;53.30;22.33;;;;;;;;;;4987345;28;43967;-83
2021/12/06 14:02:57;;;;;;;45.95;22.00;;;;;;;;;;4988640;28;43641;-83
2021/12/06 14:05:24;;;;;;;41.60;20.65;;;;;;;;;;4988280;28;46393;-83
2021/12/06 14:07:51;;;;;;;33.72;18.70;;;;;;;;;;4987212;28;44650;-83
2021/12/06 14:10:18;;;;;;;37.33;18.77;;;;;;;;;;4987579;28;45936;-83
2021/12/06 14:12:46;;;;;;;36.95;18.80;;;;;;;;;;4988374;28;43975;-83
2021/12/06 14:15:19;;;;;;;31.63;17.38;;;;;;;;;;4988560;28;20105;-81
2021/12/06 14:17:48;;;;;;;30.98;17.08;;;;;;;;;;4988040;28;34809;-85
2021/12/06 14:20:20;;;;;;;;;;;;;;;;;;4985868;28;32182;-86
2021/12/06 14:22:51;;;;;;;30.17;16.52;;;;;;;;;;4969231;28;19926;-86
2021/12/06 14:25:18;;;;;;;29.13;16.53;;;;;;;;;;4968266;28;45324;-84
2021/12/06 14:27:49;;;;;;;31.90;17.92;;;;;;;;;;4969450;28;20047;-84
2021/12/06 14:30:19;;;;;;;23.08;15.10;;;;;;;;;;4987038;28;20137;-83
2021/12/06 14:32:51;;;;;;;21.88;14.13;;;;;;;;;;4987971;28;43744;-83
2021/12/06 14:35:18;;;;;;;26.10;16.00;;;;;;;;;;4987318;28;45047;-82
2021/12/06 14:37:45;;;;;;;25.93;15.43;;;;;;;;;;4987455;28;44962;-83
2021/12/06 14:40:13;;;;;;;28.55;17.08;;;;;;;;;;4987621;28;42966;-83
2021/12/06 14:42:41;;;;;;;28.08;14.88;;;;;;;;;;4986164;28;46116;-82